sensor_id;sensor_type;location;lat;lon;timestamp;P1;durP1;ratioP1;P2;durP2;ratioP2
13693;SDS011;6919;52.344;14.518;2023-10-08T00:01:09;7.07;;;2.20;;
13693;SDS011;6919;52.344;14.518;2023-10-08T00:03:41;7.63;;;1.50;;
13693;SDS011;6919;52.344;14.518;2023-10-08T00:06:15;5.53;;;2.13;;
13693;SDS011;6919;52.344;14.518;2023-10-08T00:08:47;3.67;;;1.77;;
13693;SDS011;6919;52.344;14.518;2023-10-08T00:11:16;7.30;;;1.57;;
13693;SDS011;6919;52.344;14.518;2023-10-08T00:13:49;2.70;;;1.40;;
13693;SDS011;6919;52.344;14.518;2023-10-08T00:16:22;8.83;;;2.20;;
13693;SDS011;6919;52.344;14.518;2023-10-08T00:18:53;9.73;;;1.77;;
13693;SDS011;6919;52.344;14.518;2023-10-08T00:21:26;8.93;;;1.60;;
13693;SDS011;6919;52.344;14.518;2023-10-08T00:23:59;6.33;;;1.80;;
13693;SDS011;6919;52.344;14.518;2023-10-08T00:26:33;8.47;;;1.40;;
13693;SDS011;6919;52.344;14.518;2023-10-08T00:29:07;6.93;;;1.67;;
13693;SDS011;6919;52.344;14.518;2023-10-08T00:31:43;7.10;;;1.60;;
13693;SDS011;6919;52.344;14.518;2023-10-08T00:34:14;5.73;;;1.67;;
13693;SDS011;6919;52.344;14.518;2023-10-08T00:36:46;11.87;;;1.90;;
13693;SDS011;6919;52.344;14.518;2023-10-08T00:39:18;3.60;;;1.47;;
13693;SDS011;6919;52.344;14.518;2023-10-08T00:41:50;6.70;;;1.23;;
13693;SDS011;6919;52.344;14.518;2023-10-08T00:44:26;6.03;;;1.50;;
13693;SDS011;6919;52.344;14.518;2023-10-08T00:46:57;8.83;;;1.67;;
13693;SDS011;6919;52.344;14.518;2023-10-08T00:49:31;4.47;;;1.53;;
13693;SDS011;6919;52.344;14.518;2023-10-08T00:52:15;6.73;;;2.07;;
13693;SDS011;6919;52.344;14.518;2023-10-08T00:55:06;12.80;;;2.00;;
13693;SDS011;6919;52.344;14.518;2023-10-08T00:57:46;10.20;;;2.00;;
13693;SDS011;6919;52.344;14.518;2023-10-08T01:00:24;11.10;;;1.67;;
13693;SDS011;6919;52.344;14.518;2023-10-08T01:02:59;9.70;;;2.47;;
13693;SDS011;6919;52.344;14.518;2023-10-08T01:05:37;5.63;;;1.50;;
13693;SDS011;6919;52.344;14.518;2023-10-08T01:08:15;12.00;;;1.87;;
13693;SDS011;6919;52.344;14.518;2023-10-08T01:10:51;6.57;;;1.67;;
13693;SDS011;6919;52.344;14.518;2023-10-08T01:13:30;4.53;;;2.03;;
13693;SDS011;6919;52.344;14.518;2023-10-08T01:16:09;9.53;;;2.13;;
13693;SDS011;6919;52.344;14.518;2023-10-08T01:18:38;5.53;;;2.00;;
13693;SDS011;6919;52.344;14.518;2023-10-08T01:21:12;8.20;;;1.97;;
13693;SDS011;6919;52.344;14.518;2023-10-08T01:23:57;9.50;;;2.43;;
13693;SDS011;6919;52.344;14.518;2023-10-08T01:26:29;6.10;;;1.70;;
13693;SDS011;6919;52.344;14.518;2023-10-08T01:28:59;4.60;;;1.80;;
13693;SDS011;6919;52.344;14.518;2023-10-08T01:31:33;4.73;;;1.97;;
13693;SDS011;6919;52.344;14.518;2023-10-08T01:34:03;12.03;;;2.00;;
13693;SDS011;6919;52.344;14.518;2023-10-08T01:36:33;11.03;;;2.40;;
13693;SDS011;6919;52.344;14.518;2023-10-08T01:39:04;8.73;;;2.17;;
13693;SDS011;6919;52.344;14.518;2023-10-08T01:41:33;10.00;;;1.97;;
13693;SDS011;6919;52.344;14.518;2023-10-08T01:44:07;9.20;;;2.10;;
13693;SDS011;6919;52.344;14.518;2023-10-08T01:46:35;10.87;;;2.77;;
13693;SDS011;6919;52.344;14.518;2023-10-08T01:49:07;10.33;;;2.40;;
13693;SDS011;6919;52.344;14.518;2023-10-08T01:51:41;15.53;;;2.53;;
13693;SDS011;6919;52.344;14.518;2023-10-08T01:54:15;10.80;;;2.50;;
13693;SDS011;6919;52.344;14.518;2023-10-08T01:56:47;15.13;;;2.17;;
13693;SDS011;6919;52.344;14.518;2023-10-08T01:59:16;6.17;;;2.07;;
13693;SDS011;6919;52.344;14.518;2023-10-08T02:01:45;9.33;;;2.73;;
13693;SDS011;6919;52.344;14.518;2023-10-08T02:04:13;12.53;;;2.50;;
13693;SDS011;6919;52.344;14.518;2023-10-08T02:06:43;6.83;;;2.20;;
13693;SDS011;6919;52.344;14.518;2023-10-08T02:09:14;5.40;;;2.27;;
13693;SDS011;6919;52.344;14.518;2023-10-08T02:11:43;11.10;;;2.03;;
13693;SDS011;6919;52.344;14.518;2023-10-08T02:14:16;6.90;;;1.93;;
13693;SDS011;6919;52.344;14.518;2023-10-08T02:16:46;6.10;;;2.13;;
13693;SDS011;6919;52.344;14.518;2023-10-08T02:19:15;11.37;;;2.17;;
13693;SDS011;6919;52.344;14.518;2023-10-08T02:21:54;10.77;;;2.30;;
13693;SDS011;6919;52.344;14.518;2023-10-08T02:24:25;18.07;;;2.87;;
13693;SDS011;6919;52.344;14.518;2023-10-08T02:26:56;12.13;;;2.37;;
13693;SDS011;6919;52.344;14.518;2023-10-08T02:29:26;7.30;;;2.63;;
13693;SDS011;6919;52.344;14.518;2023-10-08T02:31:57;9.30;;;2.03;;
13693;SDS011;6919;52.344;14.518;2023-10-08T02:34:26;15.63;;;2.97;;
13693;SDS011;6919;52.344;14.518;2023-10-08T02:36:54;7.70;;;2.27;;
13693;SDS011;6919;52.344;14.518;2023-10-08T02:39:22;9.10;;;2.33;;
13693;SDS011;6919;52.344;14.518;2023-10-08T02:41:53;11.57;;;2.50;;
13693;SDS011;6919;52.344;14.518;2023-10-08T02:44:25;4.67;;;1.80;;
13693;SDS011;6919;52.344;14.518;2023-10-08T02:46:54;10.80;;;2.47;;
13693;SDS011;6919;52.344;14.518;2023-10-08T02:49:24;10.60;;;2.70;;
13693;SDS011;6919;52.344;14.518;2023-10-08T02:51:56;8.97;;;2.10;;
13693;SDS011;6919;52.344;14.518;2023-10-08T02:54:24;10.83;;;2.80;;
13693;SDS011;6919;52.344;14.518;2023-10-08T02:57:03;8.30;;;2.30;;
13693;SDS011;6919;52.344;14.518;2023-10-08T02:59:36;13.23;;;2.43;;
13693;SDS011;6919;52.344;14.518;2023-10-08T03:02:07;10.07;;;2.60;;
13693;SDS011;6919;52.344;14.518;2023-10-08T03:04:45;9.47;;;3.03;;
13693;SDS011;6919;52.344;14.518;2023-10-08T03:07:17;7.43;;;2.37;;
13693;SDS011;6919;52.344;14.518;2023-10-08T03:09:59;6.23;;;1.93;;
13693;SDS011;6919;52.344;14.518;2023-10-08T03:12:34;17.40;;;2.70;;
13693;SDS011;6919;52.344;14.518;2023-10-08T03:15:03;14.17;;;2.37;;
13693;SDS011;6919;52.344;14.518;2023-10-08T03:17:40;8.30;;;2.13;;
13693;SDS011;6919;52.344;14.518;2023-10-08T03:20:16;10.37;;;2.53;;
13693;SDS011;6919;52.344;14.518;2023-10-08T03:23:05;6.87;;;2.80;;
13693;SDS011;6919;52.344;14.518;2023-10-08T03:25:39;11.50;;;2.00;;
13693;SDS011;6919;52.344;14.518;2023-10-08T03:28:11;9.57;;;2.33;;
13693;SDS011;6919;52.344;14.518;2023-10-08T03:30:40;7.53;;;2.80;;
13693;SDS011;6919;52.344;14.518;2023-10-08T03:33:16;6.47;;;2.23;;
13693;SDS011;6919;52.344;14.518;2023-10-08T03:35:50;7.80;;;2.13;;
13693;SDS011;6919;52.344;14.518;2023-10-08T03:38:21;9.27;;;2.30;;
13693;SDS011;6919;52.344;14.518;2023-10-08T03:40:58;7.43;;;2.40;;
13693;SDS011;6919;52.344;14.518;2023-10-08T03:43:34;10.23;;;2.63;;
13693;SDS011;6919;52.344;14.518;2023-10-08T03:46:13;13.40;;;3.73;;
13693;SDS011;6919;52.344;14.518;2023-10-08T03:48:42;11.90;;;2.40;;
13693;SDS011;6919;52.344;14.518;2023-10-08T03:51:12;9.77;;;2.53;;
13693;SDS011;6919;52.344;14.518;2023-10-08T03:53:46;4.27;;;1.73;;
13693;SDS011;6919;52.344;14.518;2023-10-08T03:56:42;8.43;;;2.40;;
13693;SDS011;6919;52.344;14.518;2023-10-08T03:59:16;12.00;;;2.73;;
13693;SDS011;6919;52.344;14.518;2023-10-08T04:01:57;15.97;;;2.27;;
13693;SDS011;6919;52.344;14.518;2023-10-08T04:04:40;14.83;;;2.33;;
13693;SDS011;6919;52.344;14.518;2023-10-08T04:07:18;15.40;;;2.73;;
13693;SDS011;6919;52.344;14.518;2023-10-08T04:10:06;11.37;;;2.27;;
13693;SDS011;6919;52.344;14.518;2023-10-08T04:12:52;4.33;;;2.00;;
13693;SDS011;6919;52.344;14.518;2023-10-08T04:15:23;18.73;;;2.63;;
13693;SDS011;6919;52.344;14.518;2023-10-08T04:17:51;11.90;;;2.63;;
13693;SDS011;6919;52.344;14.518;2023-10-08T04:20:20;8.17;;;2.20;;
13693;SDS011;6919;52.344;14.518;2023-10-08T04:23:05;7.17;;;2.37;;
13693;SDS011;6919;52.344;14.518;2023-10-08T04:25:40;6.40;;;1.70;;
13693;SDS011;6919;52.344;14.518;2023-10-08T04:28:09;9.00;;;2.17;;
13693;SDS011;6919;52.344;14.518;2023-10-08T04:30:42;13.10;;;2.30;;
13693;SDS011;6919;52.344;14.518;2023-10-08T04:33:11;7.23;;;2.27;;
13693;SDS011;6919;52.344;14.518;2023-10-08T04:35:41;7.57;;;2.17;;
13693;SDS011;6919;52.344;14.518;2023-10-08T04:38:19;8.20;;;2.27;;
13693;SDS011;6919;52.344;14.518;2023-10-08T04:40:50;8.37;;;2.27;;
13693;SDS011;6919;52.344;14.518;2023-10-08T04:43:20;7.87;;;2.57;;
13693;SDS011;6919;52.344;14.518;2023-10-08T04:45:53;10.30;;;2.23;;
13693;SDS011;6919;52.344;14.518;2023-10-08T04:48:23;9.63;;;1.93;;
13693;SDS011;6919;52.344;14.518;2023-10-08T04:50:53;8.10;;;1.97;;
13693;SDS011;6919;52.344;14.518;2023-10-08T04:53:25;7.27;;;1.87;;
13693;SDS011;6919;52.344;14.518;2023-10-08T04:55:59;11.70;;;2.47;;
13693;SDS011;6919;52.344;14.518;2023-10-08T04:58:32;10.23;;;2.40;;
13693;SDS011;6919;52.344;14.518;2023-10-08T05:01:05;9.30;;;2.40;;
13693;SDS011;6919;52.344;14.518;2023-10-08T05:03:48;9.67;;;2.40;;
13693;SDS011;6919;52.344;14.518;2023-10-08T05:06:51;7.27;;;1.70;;
13693;SDS011;6919;52.344;14.518;2023-10-08T05:09:44;9.97;;;2.60;;
13693;SDS011;6919;52.344;14.518;2023-10-08T05:12:19;6.83;;;1.90;;
13693;SDS011;6919;52.344;14.518;2023-10-08T05:15:01;10.20;;;2.97;;
13693;SDS011;6919;52.344;14.518;2023-10-08T05:17:48;7.27;;;1.97;;
13693;SDS011;6919;52.344;14.518;2023-10-08T05:20:39;11.67;;;2.20;;
13693;SDS011;6919;52.344;14.518;2023-10-08T05:23:25;6.53;;;2.00;;
13693;SDS011;6919;52.344;14.518;2023-10-08T05:26:11;10.00;;;2.10;;
13693;SDS011;6919;52.344;14.518;2023-10-08T05:28:47;9.03;;;2.60;;
13693;SDS011;6919;52.344;14.518;2023-10-08T05:31:28;9.37;;;2.07;;
13693;SDS011;6919;52.344;14.518;2023-10-08T05:34:14;12.17;;;2.10;;
13693;SDS011;6919;52.344;14.518;2023-10-08T05:36:44;9.30;;;2.13;;
13693;SDS011;6919;52.344;14.518;2023-10-08T05:39:37;3.77;;;2.13;;
13693;SDS011;6919;52.344;14.518;2023-10-08T05:42:08;9.23;;;2.20;;
13693;SDS011;6919;52.344;14.518;2023-10-08T05:44:43;9.67;;;1.70;;
13693;SDS011;6919;52.344;14.518;2023-10-08T05:47:13;10.23;;;2.43;;
13693;SDS011;6919;52.344;14.518;2023-10-08T05:50:06;10.27;;;2.30;;
13693;SDS011;6919;52.344;14.518;2023-10-08T05:53:01;8.43;;;2.27;;
13693;SDS011;6919;52.344;14.518;2023-10-08T05:55:41;8.00;;;2.10;;
13693;SDS011;6919;52.344;14.518;2023-10-08T05:58:14;10.97;;;2.50;;
13693;SDS011;6919;52.344;14.518;2023-10-08T06:00:51;9.93;;;2.90;;
13693;SDS011;6919;52.344;14.518;2023-10-08T06:03:52;9.40;;;2.20;;
13693;SDS011;6919;52.344;14.518;2023-10-08T06:06:39;5.50;;;1.77;;
13693;SDS011;6919;52.344;14.518;2023-10-08T06:09:14;10.47;;;2.00;;
13693;SDS011;6919;52.344;14.518;2023-10-08T06:11:48;11.33;;;2.30;;
13693;SDS011;6919;52.344;14.518;2023-10-08T06:14:34;5.83;;;2.00;;
13693;SDS011;6919;52.344;14.518;2023-10-08T06:17:34;11.87;;;2.40;;
13693;SDS011;6919;52.344;14.518;2023-10-08T06:20:24;4.43;;;1.40;;
13693;SDS011;6919;52.344;14.518;2023-10-08T06:22:55;5.93;;;1.90;;
13693;SDS011;6919;52.344;14.518;2023-10-08T06:25:29;13.20;;;2.10;;
13693;SDS011;6919;52.344;14.518;2023-10-08T06:27:58;10.67;;;2.33;;
13693;SDS011;6919;52.344;14.518;2023-10-08T06:30:29;6.43;;;1.87;;
13693;SDS011;6919;52.344;14.518;2023-10-08T06:33:01;4.90;;;1.70;;
13693;SDS011;6919;52.344;14.518;2023-10-08T06:35:30;6.40;;;2.23;;
13693;SDS011;6919;52.344;14.518;2023-10-08T06:38:01;9.83;;;2.03;;
13693;SDS011;6919;52.344;14.518;2023-10-08T06:40:34;9.67;;;2.20;;
13693;SDS011;6919;52.344;14.518;2023-10-08T06:43:11;6.50;;;2.00;;
13693;SDS011;6919;52.344;14.518;2023-10-08T06:45:43;8.90;;;1.60;;
13693;SDS011;6919;52.344;14.518;2023-10-08T06:48:13;7.10;;;2.27;;
13693;SDS011;6919;52.344;14.518;2023-10-08T06:50:48;11.67;;;2.37;;
13693;SDS011;6919;52.344;14.518;2023-10-08T06:53:19;11.70;;;1.90;;
13693;SDS011;6919;52.344;14.518;2023-10-08T06:55:48;9.90;;;2.30;;
13693;SDS011;6919;52.344;14.518;2023-10-08T06:58:22;10.53;;;2.30;;
13693;SDS011;6919;52.344;14.518;2023-10-08T07:00:51;4.73;;;1.60;;
13693;SDS011;6919;52.344;14.518;2023-10-08T07:03:21;13.03;;;1.87;;
13693;SDS011;6919;52.344;14.518;2023-10-08T07:05:51;3.53;;;1.87;;
13693;SDS011;6919;52.344;14.518;2023-10-08T07:08:28;10.37;;;1.80;;
13693;SDS011;6919;52.344;14.518;2023-10-08T07:10:59;4.40;;;1.67;;
13693;SDS011;6919;52.344;14.518;2023-10-08T07:13:34;4.90;;;1.80;;
13693;SDS011;6919;52.344;14.518;2023-10-08T07:16:03;8.43;;;1.93;;
13693;SDS011;6919;52.344;14.518;2023-10-08T07:18:38;6.90;;;1.40;;
13693;SDS011;6919;52.344;14.518;2023-10-08T07:21:08;5.03;;;1.50;;
13693;SDS011;6919;52.344;14.518;2023-10-08T07:23:40;8.17;;;1.70;;
13693;SDS011;6919;52.344;14.518;2023-10-08T07:26:23;3.97;;;1.20;;
13693;SDS011;6919;52.344;14.518;2023-10-08T07:28:52;3.33;;;1.40;;
13693;SDS011;6919;52.344;14.518;2023-10-08T07:31:22;2.57;;;1.20;;
13693;SDS011;6919;52.344;14.518;2023-10-08T07:33:55;2.80;;;1.60;;
13693;SDS011;6919;52.344;14.518;2023-10-08T07:36:42;5.03;;;1.20;;
13693;SDS011;6919;52.344;14.518;2023-10-08T07:39:14;4.97;;;1.10;;
13693;SDS011;6919;52.344;14.518;2023-10-08T07:41:52;2.90;;;0.93;;
13693;SDS011;6919;52.344;14.518;2023-10-08T07:44:22;3.43;;;1.00;;
13693;SDS011;6919;52.344;14.518;2023-10-08T07:46:52;6.23;;;1.40;;
13693;SDS011;6919;52.344;14.518;2023-10-08T07:49:21;3.03;;;1.07;;
13693;SDS011;6919;52.344;14.518;2023-10-08T07:51:51;2.63;;;1.47;;
13693;SDS011;6919;52.344;14.518;2023-10-08T07:54:22;5.00;;;1.27;;
13693;SDS011;6919;52.344;14.518;2023-10-08T07:56:54;2.67;;;1.13;;
13693;SDS011;6919;52.344;14.518;2023-10-08T07:59:35;1.93;;;0.80;;
13693;SDS011;6919;52.344;14.518;2023-10-08T08:02:05;2.30;;;0.93;;
13693;SDS011;6919;52.344;14.518;2023-10-08T08:04:36;1.57;;;1.00;;
13693;SDS011;6919;52.344;14.518;2023-10-08T08:07:06;2.37;;;1.00;;
13693;SDS011;6919;52.344;14.518;2023-10-08T08:09:44;2.80;;;0.97;;
13693;SDS011;6919;52.344;14.518;2023-10-08T08:12:18;1.60;;;1.00;;
13693;SDS011;6919;52.344;14.518;2023-10-08T08:14:48;3.80;;;1.23;;
13693;SDS011;6919;52.344;14.518;2023-10-08T08:17:18;3.13;;;1.00;;
13693;SDS011;6919;52.344;14.518;2023-10-08T08:19:49;5.83;;;1.00;;
13693;SDS011;6919;52.344;14.518;2023-10-08T08:22:20;1.53;;;0.77;;
13693;SDS011;6919;52.344;14.518;2023-10-08T08:24:52;4.13;;;1.60;;
13693;SDS011;6919;52.344;14.518;2023-10-08T08:27:28;2.07;;;0.80;;
13693;SDS011;6919;52.344;14.518;2023-10-08T08:29:59;1.87;;;0.70;;
13693;SDS011;6919;52.344;14.518;2023-10-08T08:32:37;1.53;;;0.93;;
13693;SDS011;6919;52.344;14.518;2023-10-08T08:35:07;1.17;;;0.63;;
13693;SDS011;6919;52.344;14.518;2023-10-08T08:37:38;1.93;;;0.67;;
13693;SDS011;6919;52.344;14.518;2023-10-08T08:40:09;0.77;;;0.60;;
13693;SDS011;6919;52.344;14.518;2023-10-08T08:42:44;3.50;;;0.90;;
13693;SDS011;6919;52.344;14.518;2023-10-08T08:45:15;2.90;;;0.93;;
13693;SDS011;6919;52.344;14.518;2023-10-08T08:47:48;1.00;;;0.60;;
13693;SDS011;6919;52.344;14.518;2023-10-08T08:50:18;2.97;;;1.10;;
13693;SDS011;6919;52.344;14.518;2023-10-08T08:52:47;1.80;;;0.63;;
13693;SDS011;6919;52.344;14.518;2023-10-08T08:55:21;1.70;;;0.70;;
13693;SDS011;6919;52.344;14.518;2023-10-08T08:57:51;2.67;;;0.90;;
13693;SDS011;6919;52.344;14.518;2023-10-08T09:00:22;1.17;;;0.73;;
13693;SDS011;6919;52.344;14.518;2023-10-08T09:02:55;2.20;;;1.13;;
13693;SDS011;6919;52.344;14.518;2023-10-08T09:05:24;2.53;;;0.80;;
13693;SDS011;6919;52.344;14.518;2023-10-08T09:07:55;2.37;;;0.70;;
13693;SDS011;6919;52.344;14.518;2023-10-08T09:10:27;2.67;;;0.87;;
13693;SDS011;6919;52.344;14.518;2023-10-08T09:12:56;0.90;;;0.60;;
13693;SDS011;6919;52.344;14.518;2023-10-08T09:15:26;2.70;;;0.60;;
13693;SDS011;6919;52.344;14.518;2023-10-08T09:17:56;2.83;;;0.80;;
13693;SDS011;6919;52.344;14.518;2023-10-08T09:20:28;2.33;;;0.87;;
13693;SDS011;6919;52.344;14.518;2023-10-08T09:23:05;0.60;;;0.60;;
13693;SDS011;6919;52.344;14.518;2023-10-08T09:25:39;2.60;;;0.70;;
13693;SDS011;6919;52.344;14.518;2023-10-08T09:28:08;1.57;;;0.70;;
13693;SDS011;6919;52.344;14.518;2023-10-08T09:30:40;1.00;;;0.60;;
13693;SDS011;6919;52.344;14.518;2023-10-08T09:33:12;1.23;;;0.60;;
13693;SDS011;6919;52.344;14.518;2023-10-08T09:35:42;0.50;;;0.50;;
13693;SDS011;6919;52.344;14.518;2023-10-08T09:38:10;1.73;;;0.70;;
13693;SDS011;6919;52.344;14.518;2023-10-08T09:40:40;1.23;;;0.80;;
13693;SDS011;6919;52.344;14.518;2023-10-08T09:43:10;0.97;;;0.63;;
13693;SDS011;6919;52.344;14.518;2023-10-08T09:45:40;1.20;;;0.60;;
13693;SDS011;6919;52.344;14.518;2023-10-08T09:48:15;2.53;;;1.20;;
13693;SDS011;6919;52.344;14.518;2023-10-08T09:50:47;0.80;;;0.60;;
13693;SDS011;6919;52.344;14.518;2023-10-08T09:53:22;2.87;;;1.00;;
13693;SDS011;6919;52.344;14.518;2023-10-08T09:56:25;1.17;;;0.80;;
13693;SDS011;6919;52.344;14.518;2023-10-08T09:58:58;1.63;;;0.60;;
13693;SDS011;6919;52.344;14.518;2023-10-08T10:01:27;0.50;;;0.50;;
13693;SDS011;6919;52.344;14.518;2023-10-08T10:03:59;1.20;;;0.70;;
13693;SDS011;6919;52.344;14.518;2023-10-08T10:06:34;1.40;;;0.60;;
13693;SDS011;6919;52.344;14.518;2023-10-08T10:09:04;1.83;;;0.83;;
13693;SDS011;6919;52.344;14.518;2023-10-08T10:11:47;0.97;;;0.60;;
13693;SDS011;6919;52.344;14.518;2023-10-08T10:14:17;1.50;;;0.67;;
13693;SDS011;6919;52.344;14.518;2023-10-08T10:16:47;1.80;;;0.57;;
13693;SDS011;6919;52.344;14.518;2023-10-08T10:19:35;1.57;;;0.70;;
13693;SDS011;6919;52.344;14.518;2023-10-08T10:22:04;1.67;;;0.73;;
13693;SDS011;6919;52.344;14.518;2023-10-08T10:24:39;0.77;;;0.57;;
13693;SDS011;6919;52.344;14.518;2023-10-08T10:27:12;1.40;;;0.57;;
13693;SDS011;6919;52.344;14.518;2023-10-08T10:29:42;3.03;;;0.80;;
13693;SDS011;6919;52.344;14.518;2023-10-08T10:32:14;1.07;;;0.70;;
13693;SDS011;6919;52.344;14.518;2023-10-08T10:34:45;0.73;;;0.60;;
13693;SDS011;6919;52.344;14.518;2023-10-08T10:37:19;0.80;;;0.80;;
13693;SDS011;6919;52.344;14.518;2023-10-08T10:39:53;1.93;;;0.60;;
13693;SDS011;6919;52.344;14.518;2023-10-08T10:42:26;0.97;;;0.67;;
13693;SDS011;6919;52.344;14.518;2023-10-08T10:44:55;1.97;;;0.60;;
13693;SDS011;6919;52.344;14.518;2023-10-08T10:47:25;0.97;;;0.50;;
13693;SDS011;6919;52.344;14.518;2023-10-08T10:49:54;1.90;;;1.00;;
13693;SDS011;6919;52.344;14.518;2023-10-08T10:52:43;1.27;;;0.80;;
13693;SDS011;6919;52.344;14.518;2023-10-08T10:55:12;2.10;;;1.70;;
13693;SDS011;6919;52.344;14.518;2023-10-08T10:57:59;2.43;;;0.73;;
13693;SDS011;6919;52.344;14.518;2023-10-08T11:00:41;1.00;;;0.80;;
13693;SDS011;6919;52.344;14.518;2023-10-08T11:03:23;1.47;;;0.60;;
13693;SDS011;6919;52.344;14.518;2023-10-08T11:05:52;0.70;;;0.60;;
13693;SDS011;6919;52.344;14.518;2023-10-08T11:08:33;0.80;;;0.60;;
13693;SDS011;6919;52.344;14.518;2023-10-08T11:11:02;3.90;;;0.90;;
13693;SDS011;6919;52.344;14.518;2023-10-08T11:13:37;1.97;;;0.60;;
13693;SDS011;6919;52.344;14.518;2023-10-08T11:16:07;5.10;;;0.63;;
13693;SDS011;6919;52.344;14.518;2023-10-08T11:18:43;1.10;;;0.70;;
13693;SDS011;6919;52.344;14.518;2023-10-08T11:21:17;1.17;;;0.70;;
13693;SDS011;6919;52.344;14.518;2023-10-08T11:23:51;3.77;;;0.87;;
13693;SDS011;6919;52.344;14.518;2023-10-08T11:26:22;1.00;;;0.67;;
13693;SDS011;6919;52.344;14.518;2023-10-08T11:29:01;0.80;;;0.70;;
13693;SDS011;6919;52.344;14.518;2023-10-08T11:31:31;1.53;;;0.80;;
13693;SDS011;6919;52.344;14.518;2023-10-08T11:34:02;0.50;;;0.40;;
13693;SDS011;6919;52.344;14.518;2023-10-08T11:36:36;2.00;;;0.73;;
13693;SDS011;6919;52.344;14.518;2023-10-08T11:39:16;1.80;;;0.57;;
13693;SDS011;6919;52.344;14.518;2023-10-08T11:41:55;0.60;;;0.57;;
13693;SDS011;6919;52.344;14.518;2023-10-08T11:44:31;2.17;;;0.70;;
13693;SDS011;6919;52.344;14.518;2023-10-08T11:47:03;2.40;;;0.67;;
13693;SDS011;6919;52.344;14.518;2023-10-08T11:49:40;0.57;;;0.43;;
13693;SDS011;6919;52.344;14.518;2023-10-08T11:52:17;1.13;;;0.60;;
13693;SDS011;6919;52.344;14.518;2023-10-08T11:54:48;2.07;;;0.80;;
13693;SDS011;6919;52.344;14.518;2023-10-08T11:57:19;3.37;;;0.90;;
13693;SDS011;6919;52.344;14.518;2023-10-08T11:59:50;1.40;;;0.80;;
13693;SDS011;6919;52.344;14.518;2023-10-08T12:02:21;1.37;;;0.70;;
13693;SDS011;6919;52.344;14.518;2023-10-08T12:04:50;1.63;;;0.77;;
13693;SDS011;6919;52.344;14.518;2023-10-08T12:07:19;0.60;;;0.60;;
13693;SDS011;6919;52.344;14.518;2023-10-08T12:09:49;0.53;;;0.40;;
13693;SDS011;6919;52.344;14.518;2023-10-08T12:12:20;2.00;;;0.60;;
13693;SDS011;6919;52.344;14.518;2023-10-08T12:14:51;1.33;;;0.63;;
13693;SDS011;6919;52.344;14.518;2023-10-08T12:17:24;1.10;;;0.70;;
13693;SDS011;6919;52.344;14.518;2023-10-08T12:20:05;1.13;;;1.03;;
13693;SDS011;6919;52.344;14.518;2023-10-08T12:22:49;1.17;;;0.80;;
13693;SDS011;6919;52.344;14.518;2023-10-08T12:25:18;1.00;;;0.80;;
13693;SDS011;6919;52.344;14.518;2023-10-08T12:27:47;2.30;;;0.70;;
13693;SDS011;6919;52.344;14.518;2023-10-08T12:30:17;2.27;;;0.90;;
13693;SDS011;6919;52.344;14.518;2023-10-08T12:32:54;0.90;;;0.70;;
13693;SDS011;6919;52.344;14.518;2023-10-08T12:35:23;2.03;;;1.00;;
13693;SDS011;6919;52.344;14.518;2023-10-08T12:37:52;2.27;;;1.00;;
13693;SDS011;6919;52.344;14.518;2023-10-08T12:40:21;1.33;;;0.77;;
13693;SDS011;6919;52.344;14.518;2023-10-08T12:42:50;2.00;;;0.60;;
13693;SDS011;6919;52.344;14.518;2023-10-08T12:45:22;1.83;;;0.90;;
13693;SDS011;6919;52.344;14.518;2023-10-08T12:47:53;0.63;;;0.60;;
13693;SDS011;6919;52.344;14.518;2023-10-08T12:50:24;1.93;;;0.70;;
13693;SDS011;6919;52.344;14.518;2023-10-08T12:53:01;1.83;;;0.67;;
13693;SDS011;6919;52.344;14.518;2023-10-08T12:55:30;1.23;;;0.60;;
13693;SDS011;6919;52.344;14.518;2023-10-08T12:58:05;0.60;;;0.60;;
13693;SDS011;6919;52.344;14.518;2023-10-08T13:00:38;2.40;;;0.67;;
13693;SDS011;6919;52.344;14.518;2023-10-08T13:03:08;1.73;;;0.90;;
13693;SDS011;6919;52.344;14.518;2023-10-08T13:05:42;0.67;;;0.53;;
13693;SDS011;6919;52.344;14.518;2023-10-08T13:08:11;1.63;;;0.70;;
13693;SDS011;6919;52.344;14.518;2023-10-08T13:10:39;3.00;;;1.13;;
13693;SDS011;6919;52.344;14.518;2023-10-08T13:13:10;1.00;;;0.63;;
13693;SDS011;6919;52.344;14.518;2023-10-08T13:15:41;1.43;;;0.70;;
13693;SDS011;6919;52.344;14.518;2023-10-08T13:18:09;1.90;;;0.77;;
13693;SDS011;6919;52.344;14.518;2023-10-08T13:20:38;1.17;;;0.57;;
13693;SDS011;6919;52.344;14.518;2023-10-08T13:23:08;1.20;;;0.50;;
13693;SDS011;6919;52.344;14.518;2023-10-08T13:25:36;0.87;;;0.67;;
13693;SDS011;6919;52.344;14.518;2023-10-08T13:28:06;1.70;;;0.73;;
13693;SDS011;6919;52.344;14.518;2023-10-08T13:30:38;1.00;;;0.80;;
13693;SDS011;6919;52.344;14.518;2023-10-08T13:33:08;1.20;;;0.53;;
13693;SDS011;6919;52.344;14.518;2023-10-08T13:35:36;1.00;;;0.70;;
13693;SDS011;6919;52.344;14.518;2023-10-08T13:38:05;2.63;;;0.70;;
13693;SDS011;6919;52.344;14.518;2023-10-08T13:40:39;2.83;;;0.80;;
13693;SDS011;6919;52.344;14.518;2023-10-08T13:43:28;1.00;;;0.70;;
13693;SDS011;6919;52.344;14.518;2023-10-08T13:46:01;0.50;;;0.50;;
13693;SDS011;6919;52.344;14.518;2023-10-08T13:48:35;1.57;;;0.70;;
13693;SDS011;6919;52.344;14.518;2023-10-08T13:51:04;4.20;;;0.73;;
13693;SDS011;6919;52.344;14.518;2023-10-08T13:53:40;1.07;;;0.80;;
13693;SDS011;6919;52.344;14.518;2023-10-08T13:56:11;0.70;;;0.50;;
13693;SDS011;6919;52.344;14.518;2023-10-08T13:58:40;0.60;;;0.60;;
13693;SDS011;6919;52.344;14.518;2023-10-08T14:01:12;0.87;;;0.73;;
13693;SDS011;6919;52.344;14.518;2023-10-08T14:03:48;0.90;;;0.80;;
13693;SDS011;6919;52.344;14.518;2023-10-08T14:06:20;0.93;;;0.70;;
13693;SDS011;6919;52.344;14.518;2023-10-08T14:08:49;1.70;;;0.90;;
13693;SDS011;6919;52.344;14.518;2023-10-08T14:11:19;0.60;;;0.60;;
13693;SDS011;6919;52.344;14.518;2023-10-08T14:13:50;0.83;;;0.83;;
13693;SDS011;6919;52.344;14.518;2023-10-08T14:16:20;1.10;;;0.60;;
13693;SDS011;6919;52.344;14.518;2023-10-08T14:18:52;1.33;;;0.80;;
13693;SDS011;6919;52.344;14.518;2023-10-08T14:21:21;1.67;;;0.70;;
13693;SDS011;6919;52.344;14.518;2023-10-08T14:23:51;1.58;;;0.95;;
13693;SDS011;6919;52.344;14.518;2023-10-08T14:26:19;0.93;;;0.77;;
13693;SDS011;6919;52.344;14.518;2023-10-08T14:29:17;0.73;;;0.65;;
13693;SDS011;6919;52.344;14.518;2023-10-08T14:31:47;1.10;;;0.80;;
13693;SDS011;6919;52.344;14.518;2023-10-08T14:34:17;1.33;;;0.63;;
13693;SDS011;6919;52.344;14.518;2023-10-08T14:37:08;3.22;;;1.08;;
13693;SDS011;6919;52.344;14.518;2023-10-08T14:39:54;1.50;;;0.83;;
13693;SDS011;6919;52.344;14.518;2023-10-08T14:42:40;1.50;;;0.77;;
13693;SDS011;6919;52.344;14.518;2023-10-08T14:45:26;1.67;;;0.97;;
13693;SDS011;6919;52.344;14.518;2023-10-08T14:47:58;1.03;;;0.70;;
13693;SDS011;6919;52.344;14.518;2023-10-08T14:50:28;1.03;;;0.50;;
13693;SDS011;6919;52.344;14.518;2023-10-08T14:52:59;0.97;;;0.57;;
13693;SDS011;6919;52.344;14.518;2023-10-08T14:55:31;0.70;;;0.57;;
13693;SDS011;6919;52.344;14.518;2023-10-08T14:58:05;2.20;;;0.80;;
13693;SDS011;6919;52.344;14.518;2023-10-08T15:03:23;1.73;;;0.90;;
13693;SDS011;6919;52.344;14.518;2023-10-08T15:05:54;0.60;;;0.60;;
13693;SDS011;6919;52.344;14.518;2023-10-08T15:08:23;1.10;;;0.73;;
13693;SDS011;6919;52.344;14.518;2023-10-08T15:10:53;0.83;;;0.83;;
13693;SDS011;6919;52.344;14.518;2023-10-08T15:13:21;1.43;;;1.07;;
13693;SDS011;6919;52.344;14.518;2023-10-08T15:15:50;1.40;;;1.27;;
13693;SDS011;6919;52.344;14.518;2023-10-08T15:18:20;2.03;;;1.23;;
13693;SDS011;6919;52.344;14.518;2023-10-08T15:20:49;1.90;;;1.60;;
13693;SDS011;6919;52.344;14.518;2023-10-08T15:23:20;2.67;;;1.90;;
13693;SDS011;6919;52.344;14.518;2023-10-08T15:25:51;2.77;;;1.90;;
13693;SDS011;6919;52.344;14.518;2023-10-08T15:28:20;9.03;;;5.80;;